»·PEaware :: N96DC KSNA-KBUR

N96DC :: KSNA-KBUR

FLIGHT INFORMATION

Flight Status: Arrived
Operator: Privately registered:
United States
More flights under this callsign
Pilot: Jim H. (16858)
Aircraft: CESSNA 172 SKYHAWK
(C172)
More flights by this aircraft type
Origin: KSNA John Wayne-Orange Co
United States
Destination: KBUR Bob Hope-Burbank
United States
More flights between these airports :: More routes between these airports
Route: +SLI V23 POPPR SMO125 SMO SMO311 SILEX
File this flight plan on PilotEdge
Remarks: Sample flight plan
Altitude:
(Current/Filed)
4,000ft
Speed:
(Current/Filed)
100kts
Departed: 14-Nov-17 11:30 AM
Arrived: 14-Nov-17 12:09 PM
Distance/Time
Traveled:
40nm/0:39
Distance/Time
To Go:
Arrived

Flight Plot

Page will automatically refresh every two minutes.


Map Options




Map Legend


Flown Route
Filed Route
Departure Airport
Arrival Airport
Navaid (VOR, NDB)
Fix

Horizontal Profiles

Position Reports

Time Latitude Longitude Heading Altitude Ground
Speed
14-Nov-17 11:20 33.675830 -117.871383 39 60ft 0kts
14-Nov-17 11:21 33.675830 -117.871383 39 60ft 0kts
14-Nov-17 11:22 33.675830 -117.871383 39 60ft 0kts
14-Nov-17 11:23 33.675830 -117.871383 39 60ft 0kts
14-Nov-17 11:24 33.675830 -117.871383 39 60ft 0kts
14-Nov-17 11:25 33.675830 -117.871383 39 60ft 0kts
14-Nov-17 11:26 33.675830 -117.871383 39 60ft 0kts
14-Nov-17 11:27 33.675830 -117.871383 39 60ft 0kts
14-Nov-17 11:28 33.675830 -117.871383 39 60ft 0kts
14-Nov-17 11:29 33.675830 -117.871383 39 60ft 0kts
14-Nov-17 11:30 33.675831 -117.871382 41 60ft 0kts
14-Nov-17 11:31 33.676957 -117.869415 29 60ft 6kts
14-Nov-17 11:32 33.680473 -117.867471 27 60ft 21kts
14-Nov-17 11:33 33.681221 -117.866446 104 60ft 0kts
14-Nov-17 11:34 33.681221 -117.866446 104 60ft 0kts
14-Nov-17 11:35 33.675678 -117.868841 207 71ft 87kts
14-Nov-17 11:36 33.658475 -117.886543 231 1057ft 86kts
14-Nov-17 11:37 33.643930 -117.909231 231 1980ft 85kts
14-Nov-17 11:38 33.635191 -117.933791 279 2859ft 85kts
14-Nov-17 11:39 33.639570 -117.961357 279 3689ft 84kts
14-Nov-17 11:40 33.644653 -117.994945 280 3882ft 114kts
14-Nov-17 11:41 33.650442 -118.031980 280 3915ft 113kts
14-Nov-17 11:42 33.656326 -118.069717 280 3876ft 113kts
14-Nov-17 11:43 33.662323 -118.106572 287 3871ft 112kts
14-Nov-17 11:44 33.684256 -118.133038 321 3894ft 116kts
14-Nov-17 11:45 33.709302 -118.156604 321 3877ft 113kts
14-Nov-17 11:46 33.733838 -118.180368 320 3877ft 113kts
14-Nov-17 11:47 33.758202 -118.204524 320 3894ft 114kts
14-Nov-17 11:48 33.782748 -118.228774 320 3883ft 114kts
14-Nov-17 11:49 33.807663 -118.253358 320 3882ft 116kts
14-Nov-17 11:50 33.832285 -118.277602 320 3877ft 112kts
14-Nov-17 11:51 33.856606 -118.301858 320 3881ft 115kts
14-Nov-17 11:52 33.880894 -118.326254 320 3876ft 112kts
14-Nov-17 11:53 33.904729 -118.350184 320 3878ft 112kts
14-Nov-17 11:54 33.928622 -118.374187 320 3878ft 112kts
14-Nov-17 11:55 33.952695 -118.398361 320 3904ft 115kts
14-Nov-17 11:56 33.977029 -118.422804 320 3885ft 113kts
14-Nov-17 11:57 34.001188 -118.447329 314 3882ft 115kts
14-Nov-17 11:58 34.023084 -118.474860 314 3887ft 114kts
14-Nov-17 11:59 34.045234 -118.502652 314 3882ft 116kts
14-Nov-17 12:00 34.067914 -118.529633 310 3878ft 113kts
14-Nov-17 12:01 34.085483 -118.561178 303 3907ft 112kts
14-Nov-17 12:02 34.103152 -118.592903 304 3886ft 117kts
14-Nov-17 12:03 34.120973 -118.624938 304 3905ft 115kts
14-Nov-17 12:04 34.140173 -118.653390 349 3913ft 113kts
14-Nov-17 12:05 34.171833 -118.652176 22 3880ft 115kts
14-Nov-17 12:06 34.189182 -118.619917 61 3690ft 125kts
14-Nov-17 12:07 34.199677 -118.578634 82 3063ft 130kts
14-Nov-17 12:08 34.198528 -118.537167 91 2893ft 119kts
14-Nov-17 12:09 34.197790 -118.498062 81 2811ft 108kts
14-Nov-17 12:10 34.199516 -118.463361 93 2344ft 106kts
14-Nov-17 12:11 34.198280 -118.427835 91 1741ft 106kts
14-Nov-17 12:12 34.198220 -118.393527 91 1184ft 98kts
14-Nov-17 12:13 34.197873 -118.367462 90 732ft 57kts
14-Nov-17 12:14 34.198924 -118.361110 276 720ft 6kts

Navigation Log

Ident Type
1. KSNA Airport
2. SLI Navaid
3. POPPR Fix
4. SMO Navaid
5. SILEX Fix
6. KBUR Airport